KRNC/RNC METAR and TAF weather

Enter ICAO airport designator
Station Type Date Time Source
KRNC METAR 2019/06/27 09:00 UTC NOAA

KRNC 270900Z AUTO 12004KT 10SM CLR 21/18 A3018 RMK A01


Station Type Date Time Source
KRNC Decoded METAR 2019/06/27 09:00 UTC NOAA

Station name not available
Jun 27, 2019 - 05:00 AM EDT / 2019.06.27 0900 UTC
Wind: from the ESE (120 degrees) at 5 MPH (4 KT):0
Visibility: 10 mile(s):0
Sky conditions: clear
Temperature: 69 F (21 C)
Dew Point: 64 F (18 C)
Relative Humidity: 82%
Pressure (altimeter): 30.18 in. Hg (1022 hPa)
ob: KRNC 270900Z AUTO 12004KT 10SM CLR 21/18 A3018 RMK A01
cycle: 9

Station Type Date Time Source
KRNC TAF 2009/08/31 19:45 UTC NOAA

METAR KRNC 311945Z AUTO 35008KT 10SM CLR 25/12 A3011
RMK AO1 T02500116 $

Example: see airport list